ADDS METAR Data INFO
IDs: Format: Raw Decoded Include TAF

Data at: 0934 UTC 25 Jun 2018

KMZH 250915Z AUTO 05004KT 10SM BKN095 08/03 A3009 RMK AO2
KMZH 250855Z AUTO 05003KT 10SM BKN095 08/03 A3009 RMK AO2
KMZH 250835Z AUTO 06004KT 10SM SCT095 08/03 A3010 RMK AO2
KMZH 250815Z AUTO 06005KT 10SM SCT090 08/03 A3009 RMK AO2
KMZH 250755Z AUTO 06004KT 10SM SCT050 SCT070 BKN090 09/03 A3010 RMK AO2
KMZH 250735Z AUTO 05006KT 10SM BKN050 BKN060 BKN090 09/04 A3010 RMK AO2
KMZH 250715Z AUTO 05005KT 10SM SCT050 BKN090 08/04 A3011 RMK AO2
KMZH 250655Z AUTO 05006KT 10SM SCT080 BKN100 08/04 A3011 RMK AO2
KMZH 250635Z AUTO 05005KT 10SM BKN100 08/04 A3011 RMK AO2
KMZH 250615Z AUTO 06005KT 10SM BKN090 09/04 A3012 RMK AO2
KMZH 250555Z AUTO 05005KT 10SM OVC090 09/05 A3012 RMK AO2
KMZH 250535Z AUTO 06005KT 10SM SCT080 OVC090 09/05 A3012 RMK AO2
KMZH 250515Z AUTO 06004KT 10SM OVC080 08/05 A3013 RMK AO2
KMZH 250455Z AUTO 05005KT 10SM BKN080 BKN095 08/05 A3013 RMK AO2
KMZH 250435Z AUTO 06004KT 10SM SCT095 08/04 A3013 RMK AO2
KMZH 250415Z AUTO 05005KT 10SM SCT095 08/04 A3012 RMK AO2
KMZH 250355Z AUTO 06005KT 10SM SCT095 08/04 A3012 RMK AO2
KMZH 250335Z AUTO 05005KT 10SM BKN095 08/03 A3011 RMK AO2
KMZH 250315Z AUTO 05006KT 10SM BKN095 09/03 A3012 RMK AO2
KMZH 250256Z AUTO 06008KT 10SM BKN095 10/04 A3011 RMK AO2
KMZH 250235Z AUTO 05007KT 10SM BKN095 10/04 A3011 RMK AO2
KMZH 250215Z AUTO 06007KT 10SM SCT095 10/05 A3010 RMK AO2
KMZH 250156Z AUTO 06007KT 10SM SCT095 11/05 A3009 RMK AO2
KMZH 250135Z AUTO 06007KT 022V092 10SM CLR 11/04 A3009 RMK AO2
KMZH 250115Z AUTO 05008KT 10SM CLR 12/05 A3009 RMK AO2
KMZH 250056Z AUTO 06008G14KT 10SM CLR 12/06 A3009 RMK AO2
KMZH 250035Z AUTO 05010G14KT 032V112 10SM CLR 13/06 A3009 RMK AO2
KMZH 250015Z AUTO 06010G15KT 022V082 10SM CLR 13/06 A3008 RMK AO2
KMZH 242355Z AUTO 07007KT 042V102 10SM CLR 14/07 A3007 RMK AO2
KMZH 242335Z AUTO 06009G14KT 10SM CLR 14/07 A3006 RMK AO2
KMZH 242316Z AUTO 06008KT 022V102 10SM CLR 15/08 A3006 RMK AO2
KMZH 242315Z AUTO 06009KT 022V082 10SM CLR 15/08 A3006 RMK AO2
KMZH 242255Z AUTO 06007G16KT 022V102 10SM CLR 15/08 A3006 RMK AO2
KMZH 242235Z AUTO 04007KT 002V082 10SM CLR 16/08 A3006 RMK AO2
KMZH 242216Z AUTO 05007G17KT 10SM CLR 15/07 A3006 RMK AO2
KMZH 242215Z AUTO 06007G17KT 10SM CLR 15/07 A3006 RMK AO2
KMZH 242155Z AUTO 06009G17KT 022V102 10SM CLR 15/07 A3006 RMK AO2
KMZH 242135Z AUTO 06011G18KT 032V102 10SM CLR 15/08 A3006 RMK AO2
KMZH 242116Z AUTO 05006G16KT 10SM CLR 15/08 A3006 RMK AO2
KMZH 242115Z AUTO 05007G16KT 352V112 10SM CLR 15/08 A3006 RMK AO2
KMZH 242055Z AUTO 07006G15KT 10SM CLR 16/08 A3006 RMK AO2
KMZH 242035Z AUTO 06007G14KT 10SM CLR 16/08 A3006 RMK AO2
KMZH 242016Z AUTO 05005KT 10SM CLR 15/08 A3005 RMK AO2
KMZH 242015Z AUTO 06007KT 10SM CLR 15/08 A3005 RMK AO2
KMZH 241955Z AUTO 05010G15KT 10SM CLR 16/08 A3006 RMK AO2
KMZH 241935Z AUTO 07009G15KT 10SM CLR 17/09 A3005 RMK AO2
KMZH 241915Z AUTO 05011G17KT 022V092 10SM CLR 16/09 A3005 RMK AO2
KMZH 241855Z AUTO 05008G17KT 022V082 10SM CLR 16/10 A3005 RMK AO2
KMZH 241835Z AUTO 05008G14KT 022V102 10SM CLR 16/09 A3006 RMK AO2
KMZH 241815Z AUTO 06006KT 10SM CLR 16/10 A3006 RMK AO2
KMZH 241755Z AUTO 05008KT 022V082 10SM CLR 16/10 A3005 RMK AO2
KMZH 241735Z AUTO 05007KT 032V102 10SM CLR 17/10 A3004 RMK AO2
KMZH 241715Z AUTO 05009G14KT 032V092 10SM CLR 16/10 A3004 RMK AO2
KMZH 241655Z AUTO 06008KT 022V092 10SM CLR 16/09 A3004 RMK AO2
KMZH 241635Z AUTO 07006KT 10SM CLR 15/09 A3003 RMK AO2
KMZH 241615Z AUTO 05006G16KT 10SM CLR 15/08 A3002 RMK AO2
KMZH 241555Z AUTO 06009G16KT 012V092 10SM CLR 15/08 A3001 RMK AO2
KMZH 241535Z AUTO 05010G15KT 10SM CLR 14/08 A3001 RMK AO2
KMZH 241515Z AUTO 06009G14KT 022V092 10SM CLR 13/08 A3001 RMK AO2
KMZH 241456Z AUTO 06008G14KT 032V092 10SM CLR 12/08 A3001 RMK AO2
KMZH 241435Z AUTO 05008G15KT 032V092 10SM CLR 12/07 A3000 RMK AO2
KMZH 241415Z AUTO 07005KT 10SM CLR 11/07 A3001 RMK AO2
KMZH 241355Z AUTO 06007G15KT 012V122 10SM SCT010 11/07 A2999 RMK AO2
KMZH 241335Z AUTO 05007KT 032V102 10SM BKN008 10/07 A2998 RMK AO2
KMZH 241315Z AUTO 05008G14KT 032V092 10SM OVC008 09/07 A2998 RMK AO2
KMZH 241255Z AUTO 06008KT 032V092 10SM OVC006 09/07 A2997 RMK AO2
KMZH 241235Z AUTO 07008KT 10SM OVC006 09/07 A2997 RMK AO2
KMZH 241215Z AUTO 05009G14KT 012V082 10SM OVC006 08/07 A2996 RMK AO2
KMZH 241155Z AUTO 06007KT 032V102 10SM OVC006 08/07 A2996 RMK AO2
KMZH 241135Z AUTO 05006KT 10SM OVC006 08/07 A2994 RMK AO2
KMZH 241115Z AUTO 05008G15KT 022V092 10SM OVC006 08/06 A2993 RMK AO2 LTG DSNT SW
KMZH 241055Z AUTO 05008G17KT 022V082 10SM OVC006 08/06 A2993 RMK AO2
KMZH 241035Z AUTO 05006KT 10SM OVC006 08/07 A2992 RMK AO2
KMZH 241015Z AUTO 06007KT 032V092 10SM OVC006 08/07 A2992 RMK AO2
KMZH 240955Z AUTO 05006KT 10SM OVC006 08/07 A2991 RMK AO2
KMZH 240935Z AUTO 06006KT 10SM OVC006 08/07 A2990 RMK AO2
KMZH 240915Z AUTO 05006KT 10SM OVC006 09/07 A2990 RMK AO2
KMZH 240855Z AUTO 05006KT 10SM SCT006 BKN095 09/07 A2989 RMK AO2
KMZH 240835Z AUTO 05006KT 10SM SCT095 10/07 A2988 RMK AO2
KMZH 240815Z AUTO 06004KT 10SM SCT080 BKN095 10/07 A2987 RMK AO2
KMZH 240755Z AUTO 05007KT 022V102 10SM BKN095 10/07 A2988 RMK AO2
KMZH 240735Z AUTO 06006KT 10SM SCT095 10/07 A2988 RMK AO2
KMZH 240715Z AUTO 05004KT 10SM BKN095 10/07 A2987 RMK AO2
KMZH 240655Z AUTO 05005KT 10SM SCT095 10/07 A2987 RMK AO2
KMZH 240635Z AUTO 06005KT 10SM BKN095 11/07 A2986 RMK AO2
KMZH 240615Z AUTO 05003KT 10SM SCT095 11/08 A2986 RMK AO2
KMZH 240555Z AUTO 05004KT 10SM OVC095 11/08 A2986 RMK AO2
KMZH 240535Z AUTO 05004KT 10SM OVC095 11/08 A2985 RMK AO2
KMZH 240515Z AUTO 05003KT 10SM BKN095 12/08 A2985 RMK AO2
KMZH 240455Z AUTO 00000KT 10SM SCT095 12/07 A2984 RMK AO2
KMZH 240435Z AUTO 05004KT 10SM SCT095 13/07 A2984 RMK AO2
KMZH 240415Z AUTO 05005KT 10SM CLR 13/07 A2984 RMK AO2
KMZH 240355Z AUTO 05005KT 10SM CLR 13/06 A2983 RMK AO2
KMZH 240335Z AUTO 05004KT 10SM CLR 13/06 A2983 RMK AO2
KMZH 240315Z AUTO 05004KT 10SM CLR 13/06 A2983 RMK AO2
KMZH 240255Z AUTO 05005KT 10SM SCT100 13/06 A2982 RMK AO2
KMZH 240235Z AUTO 05004KT 10SM SCT100 14/07 A2981 RMK AO2
KMZH 240215Z AUTO 05006KT 10SM CLR 15/08 A2980 RMK AO2
KMZH 240155Z AUTO 04005KT 10SM CLR 16/09 A2979 RMK AO2 LTG DSNT NW
KMZH 240135Z AUTO 04004KT 10SM CLR 17/11 A2979 RMK AO2 LTG DSNT NW
KMZH 240115Z AUTO 05003KT 10SM CLR 18/12 A2977 RMK AO2
KMZH 240055Z AUTO 03005KT 10SM CLR 20/13 A2976 RMK AO2
KMZH 240035Z AUTO 05004KT 10SM CLR 22/16 A2974 RMK AO2
KMZH 240015Z AUTO 00000KT 10SM CLR 23/19 A2974 RMK AO2
KMZH 232355Z AUTO 00000KT 10SM CLR 25/20 A2974 RMK AO2
KMZH 232335Z AUTO 00000KT 10SM CLR 26/15 A2973 RMK AO2
KMZH 232315Z AUTO 00000KT 10SM CLR 26/14 A2973 RMK AO2
KMZH 232255Z AUTO 00000KT 10SM CLR 26/15 A2973 RMK AO2
KMZH 232236Z AUTO 00000KT 10SM CLR 25/16 A2973 RMK AO2
KMZH 232215Z AUTO 00000KT 10SM CLR 25/18 A2973 RMK AO2
KMZH 232155Z AUTO 00000KT 10SM CLR 26/16 A2973 RMK AO2
KMZH 232135Z AUTO 00000KT 10SM CLR 26/13 A2973 RMK AO2 LTG DSNT N